Time;durP1;ratioP1;P1;durP2;ratioP2;P2;SDS_P1;SDS_P2;PMS_P1;PMS_P2;Temp;Humidity;BMP_temperature;BMP_pressure;BME280_temperature;BME280_humidity;BME280_pressure;Samples;Min_cycle;Max_cycle;Signal;HPM_P1;HPM_P2
2022/08/31 00:04:23;;;;;;;;;;;;;;;;;;1050791;28;3894;-58
2022/08/31 00:04:55;;;;;;;;;;;;;;;;;;1051302;28;3880;-50
2022/08/31 00:05:26;;;;;;;;;;;;;;;;;;1046184;28;3884;-52
2022/08/31 00:05:58;;;;;;;;;;;;;;;;;;1045814;28;3951;-53
2022/08/31 00:06:29;;;;;;;;;;;;;;;;;;1046057;28;3580;-56
2022/08/31 00:07:00;;;;;;;;;;;;;;;;;;1046715;28;3910;-54
2022/08/31 00:07:33;;;;;;;;;;;;;;;;;;1051105;28;4043;-56
2022/08/31 00:08:04;;;;;;;;;;;;;;;;;;1049522;28;4080;-54
2022/08/31 00:08:34;;;;;;;;;;;;;;;;;;1049611;28;3761;-56
2022/08/31 00:09:05;;;;;;;;;;;;;;;;;;1050910;28;3905;-57
2022/08/31 00:09:35;;;;;;;;;;;;;;;;;;1050016;28;3815;-53
2022/08/31 00:10:12;;;;;;;;;;;;;;;;;;1049816;28;4368;-52
2022/08/31 00:10:45;;;;;;;;;;;;;;;;;;1049999;28;3822;-55
2022/08/31 00:11:15;;;;;;;;;;;;;;;;;;1051044;28;3765;-55
2022/08/31 00:11:46;;;;;;;;;;;;;;;;;;1051495;28;3921;-52
2022/08/31 00:12:16;;;;;;;;;;;;;;;;;;1051778;28;3351;-58
2022/08/31 00:12:47;;;;;;;;;;;;;;;;;;1050968;28;3967;-54
2022/08/31 00:13:18;;;;;;;;;;;;;;;;;;1046613;28;3133;-53
2022/08/31 00:13:48;;;;;;;;;;;;;;;;;;1046971;28;3900;-57
2022/08/31 00:14:18;;;;;;;;;;;;;;;;;;1047713;28;3755;-54
2022/08/31 00:14:48;;;;;;;;;;;;;;;;;;1047590;28;4222;-52
2022/08/31 00:15:19;;;;;;;;;;;;;;;;;;1051110;28;3554;-55
2022/08/31 00:15:50;;;;;;;;;;;;;;;;;;1046316;28;4012;-55
2022/08/31 00:16:21;;;;;;;;;;;;;;;;;;1047517;28;3750;-50
2022/08/31 00:16:51;;;;;;;;;;;;;;;;;;1046063;28;4064;-52
2022/08/31 00:17:21;;;;;;;;;;;;;;;;;;1044487;28;2949;-57
2022/08/31 00:17:52;;;;;;;;;;;;;;;;;;1045822;28;3851;-52
2022/08/31 00:18:22;;;;;;;;;;;;;;;;;;1048975;28;3766;-54
2022/08/31 00:18:52;;;;;;;;;;;;;;;;;;1045356;28;3879;-54
2022/08/31 00:19:22;;;;;;;;;;;;;;;;;;1046795;28;3937;-55
2022/08/31 00:19:53;;;;;;;;;;;;;;;;;;1046325;28;3900;-49
2022/08/31 00:20:24;;;;;;;;;;;;;;;;;;1046883;28;3578;-54
2022/08/31 00:20:54;;;;;;;;;;;;;;;;;;1046947;28;4083;-53
2022/08/31 00:21:25;;;;;;;;;;;;;;;;;;1046383;28;3572;-53
2022/08/31 00:21:56;;;;;;;;;;;;;;;;;;1051364;28;3974;-50
2022/08/31 00:22:26;;;;;;;;;;;;;;;;;;1050874;28;3390;-56
2022/08/31 00:22:56;;;;;;;;;;;;;;;;;;1051595;28;4022;-54
2022/08/31 00:23:26;;;;;;;;;;;;;;;;;;1047680;28;3810;-54
2022/08/31 00:23:57;;;;;;;;;;;;;;;;;;1047292;28;3963;-53
2022/08/31 00:24:27;;;;;;;;;;;;;;;;;;1047312;28;3840;-57
2022/08/31 00:24:57;;;;;;;;;;;;;;;;;;1047474;28;4032;-54
2022/08/31 00:25:28;;;;;;;;;;;;;;;;;;1051157;28;3836;-58
2022/08/31 00:25:58;;;;;;;;;;;;;;;;;;1050562;28;4107;-55
2022/08/31 00:26:28;;;;;;;;;;;;;;;;;;1050546;28;3629;-54
2022/08/31 00:26:59;;;;;;;;;;;;;;;;;;1051641;28;4144;-52
2022/08/31 00:27:29;;;;;;;;;;;;;;;;;;1046020;28;3160;-57
2022/08/31 00:28:00;;;;;;;;;;;;;;;;;;1046391;28;3884;-51
2022/08/31 00:28:30;;;;;;;;;;;;;;;;;;1045873;28;3492;-54
2022/08/31 00:29:01;;;;;;;;;;;;;;;;;;1045523;28;3819;-53
2022/08/31 00:29:31;;;;;;;;;;;;;;;;;;1046476;28;2866;-53
2022/08/31 00:30:02;;;;;;;;;;;;;;;;;;1041786;28;3881;-55
2022/08/31 00:30:33;;;;;;;;;;;;;;;;;;1042437;28;5378;-52
2022/08/31 00:31:03;;;;;;;;;;;;;;;;;;1041642;28;4101;-52
2022/08/31 00:31:33;;;;;;;;;;;;;;;;;;1046283;28;4005;-53
2022/08/31 00:32:04;;;;;;;;;;;;;;;;;;1050135;28;3883;-55
2022/08/31 00:32:34;;;;;;;;;;;;;;;;;;1049874;28;3766;-50
2022/08/31 00:33:06;;;;;;;;;;;;;;;;;;1049829;28;3781;-50
2022/08/31 00:33:36;;;;;;;;;;;;;;;;;;1051392;28;3745;-53
2022/08/31 00:34:07;;;;;;;;;;;;;;;;;;1049195;28;3890;-56
2022/08/31 00:34:37;;;;;;;;;;;;;;;;;;1050792;28;2628;-57
2022/08/31 00:35:07;;;;;;;;;;;;;;;;;;1045355;28;3893;-52
2022/08/31 00:35:43;;;;;;;;;;;;;;;;;;1043034;28;3698;-59
2022/08/31 00:36:13;;;;;;;;;;;;;;;;;;1039587;28;3862;-54
2022/08/31 00:36:46;;;;;;;;;;;;;;;;;;1040632;28;3303;-55
2022/08/31 00:37:18;;;;;;;;;;;;;;;;;;1045079;28;3807;-54
2022/08/31 00:37:48;;;;;;;;;;;;;;;;;;1048028;28;3931;-53
2022/08/31 00:38:18;;;;;;;;;;;;;;;;;;1052413;28;3941;-55
2022/08/31 00:38:49;;;;;;;;;;;;;;;;;;1050477;28;3895;-53
2022/08/31 00:39:19;;;;;;;;;;;;;;;;;;1050204;28;3755;-53
2022/08/31 00:39:51;;;;;;;;;;;;;;;;;;1050927;28;4260;-55
2022/08/31 00:40:29;;;;;;;;;;;;;;;;;;1050522;28;3808;-49
2022/08/31 00:40:59;;;;;;;;;;;;;;;;;;1050423;28;3862;-58
2022/08/31 00:41:30;;;;;;;;;;;;;;;;;;1049607;28;3894;-54
2022/08/31 00:42:00;;;;;;;;;;;;;;;;;;1051610;28;3877;-52
2022/08/31 00:42:30;;;;;;;;;;;;;;;;;;1050193;28;3766;-52
2022/08/31 00:43:01;;;;;;;;;;;;;;;;;;1048784;28;4068;-53
2022/08/31 00:43:34;;;;;;;;;;;;;;;;;;1049119;28;3814;-57
2022/08/31 00:44:06;;;;;;;;;;;;;;;;;;1048235;28;3862;-53
2022/08/31 00:44:36;;;;;;;;;;;;;;;;;;1048501;28;3782;-53
2022/08/31 00:45:08;;;;;;;;;;;;;;;;;;1046414;28;4069;-56
2022/08/31 00:45:38;;;;;;;;;;;;;;;;;;1046042;28;2889;-53
2022/08/31 00:46:09;;;;;;;;;;;;;;;;;;1045999;28;4091;-54
2022/08/31 00:46:41;;;;;;;;;;;;;;;;;;1047137;28;3322;-52
2022/08/31 00:47:24;;;;;;;;;;;;;;;;;;1050089;28;4227;-51
2022/08/31 00:48:02;;;;;;;;;;;;;;;;;;1050845;28;3872;-54
2022/08/31 00:48:33;;;;;;;;;;;;;;;;;;1049557;28;4412;-52
2022/08/31 00:49:09;;;;;;;;;;;;;;;;;;1050726;28;3958;-54
2022/08/31 00:49:40;;;;;;;;;;;;;;;;;;1051566;28;1916;-56
2022/08/31 00:50:12;;;;;;;;;;;;;;;;;;1049030;28;3867;-57
2022/08/31 00:50:42;;;;;;;;;;;;;;;;;;1052703;28;2704;-52
2022/08/31 00:51:12;;;;;;;;;;;;;;;;;;1047050;28;3732;-56
2022/08/31 00:51:45;;;;;;;;;;;;;;;;;;1043545;28;1782;-55
2022/08/31 00:52:23;;;;;;;;;;;;;;;;;;1038328;28;3950;-55
2022/08/31 00:52:55;;;;;;;;;;;;;;;;;;1041263;28;3904;-55
2022/08/31 00:53:26;;;;;;;;;;;;;;;;;;1045118;28;3043;-52
2022/08/31 00:53:56;;;;;;;;;;;;;;;;;;1048309;28;3976;-53
2022/08/31 00:54:39;;;;;;;;;;;;;;;;;;1049781;28;3651;-54
2022/08/31 00:55:19;;;;;;;;;;;;;;;;;;1050663;28;4109;-58
2022/08/31 00:55:50;;;;;;;;;;;;;;;;;;1051209;28;4058;-52
2022/08/31 00:56:21;;;;;;;;;;;;;;;;;;1047981;28;3149;-51
2022/08/31 00:56:52;;;;;;;;;;;;;;;;;;1046796;28;3892;-53
2022/08/31 00:57:27;;;;;;;;;;;;;;;;;;1046737;28;3976;-55
2022/08/31 00:57:59;;;;;;;;;;;;;;;;;;1043991;28;4002;-56
2022/08/31 00:58:29;;;;;;;;;;;;;;;;;;1050904;28;3779;-57
2022/08/31 00:59:00;;;;;;;;;;;;;;;;;;1050328;28;3933;-52
2022/08/31 00:59:31;;;;;;;;;;;;;;;;;;1047553;28;3870;-55
2022/08/31 01:00:04;;;;;;;;;;;;;;;;;;1043026;28;3988;-56
2022/08/31 01:00:35;;;;;;;;;;;;;;;;;;1045518;28;3773;-56
2022/08/31 01:01:06;;;;;;;;;;;;;;;;;;1042769;28;3899;-55
2022/08/31 01:01:37;;;;;;;;;;;;;;;;;;1047752;28;3782;-56
2022/08/31 01:02:07;;;;;;;;;;;;;;;;;;1046404;28;4067;-55
2022/08/31 01:02:38;;;;;;;;;;;;;;;;;;1046618;28;3695;-51
2022/08/31 01:03:09;;;;;;;;;;;;;;;;;;1051135;28;4050;-55
2022/08/31 01:03:39;;;;;;;;;;;;;;;;;;1051236;28;3860;-57
2022/08/31 01:04:09;;;;;;;;;;;;;;;;;;1051540;28;3876;-57
2022/08/31 01:04:40;;;;;;;;;;;;;;;;;;1051549;28;4220;-56
2022/08/31 01:05:11;;;;;;;;;;;;;;;;;;1049754;28;4172;-53
2022/08/31 01:05:41;;;;;;;;;;;;;;;;;;1051029;28;3785;-52
2022/08/31 01:06:12;;;;;;;;;;;;;;;;;;1050873;28;4021;-51
2022/08/31 01:06:43;;;;;;;;;;;;;;;;;;1050187;28;2344;-55
2022/08/31 01:07:13;;;;;;;;;;;;;;;;;;1045119;28;3851;-51
2022/08/31 01:07:46;;;;;;;;;;;;;;;;;;1046856;28;3739;-57
2022/08/31 01:08:17;;;;;;;;;;;;;;;;;;1047074;28;3839;-52
2022/08/31 01:08:48;;;;;;;;;;;;;;;;;;1046495;28;3896;-57
2022/08/31 01:09:20;;;;;;;;;;;;;;;;;;1051164;28;4264;-57
2022/08/31 01:09:51;;;;;;;;;;;;;;;;;;1052146;28;4097;-54
2022/08/31 01:10:23;;;;;;;;;;;;;;;;;;1050729;28;3705;-52
2022/08/31 01:10:54;;;;;;;;;;;;;;;;;;1049208;28;3793;-56
2022/08/31 01:11:24;;;;;;;;;;;;;;;;;;1050279;28;3153;-57
2022/08/31 01:11:58;;;;;;;;;;;;;;;;;;1050334;28;3905;-57
2022/08/31 01:12:28;;;;;;;;;;;;;;;;;;1049221;28;3868;-57
2022/08/31 01:12:59;;;;;;;;;;;;;;;;;;1051457;28;4091;-53
2022/08/31 01:13:29;;;;;;;;;;;;;;;;;;1051399;28;3754;-54
2022/08/31 01:14:00;;;;;;;;;;;;;;;;;;1051014;28;4150;-55
2022/08/31 01:14:30;;;;;;;;;;;;;;;;;;1051632;28;4100;-58
2022/08/31 01:15:04;;;;;;;;;;;;;;;;;;1050631;28;4035;-56
2022/08/31 01:15:35;;;;;;;;;;;;;;;;;;1051734;28;3689;-53
2022/08/31 01:16:09;;;;;;;;;;;;;;;;;;1051754;28;4019;-56
2022/08/31 01:16:42;;;;;;;;;;;;;;;;;;1052490;28;3733;-50
2022/08/31 01:17:13;;;;;;;;;;;;;;;;;;1051355;28;4023;-52
2022/08/31 01:17:45;;;;;;;;;;;;;;;;;;1047092;28;3138;-55
2022/08/31 01:18:15;;;;;;;;;;;;;;;;;;1046166;28;3833;-53
2022/08/31 01:18:47;;;;;;;;;;;;;;;;;;1047931;28;4028;-51
2022/08/31 01:19:37;;;;;;;;;;;;;;;;;;1047228;28;3842;-55
2022/08/31 01:20:07;;;;;;;;;;;;;;;;;;1050068;28;3866;-52
2022/08/31 01:20:55;;;;;;;;;;;;;;;;;;1052232;28;3088;-55
2022/08/31 01:21:36;;;;;;;;;;;;;;;;;;1050870;28;3930;-57
2022/08/31 01:22:17;;;;;;;;;;;;;;;;;;1051267;28;3876;-56
2022/08/31 01:22:50;;;;;;;;;;;;;;;;;;1050641;28;3845;-53
2022/08/31 01:23:30;;;;;;;;;;;;;;;;;;1051148;28;3692;-55
2022/08/31 01:24:01;;;;;;;;;;;;;;;;;;1050982;28;3893;-56
2022/08/31 01:24:32;;;;;;;;;;;;;;;;;;1050330;28;3975;-54
2022/08/31 01:25:03;;;;;;;;;;;;;;;;;;1051207;28;3898;-54
2022/08/31 01:25:35;;;;;;;;;;;;;;;;;;1052418;28;3759;-57
2022/08/31 01:26:07;;;;;;;;;;;;;;;;;;1051266;28;3904;-52
2022/08/31 01:26:37;;;;;;;;;;;;;;;;;;1051325;28;3926;-56
2022/08/31 01:27:07;;;;;;;;;;;;;;;;;;1052459;28;3808;-53
2022/08/31 01:27:37;;;;;;;;;;;;;;;;;;1051746;28;3839;-54
2022/08/31 01:28:08;;;;;;;;;;;;;;;;;;1046442;28;3965;-56
2022/08/31 01:28:38;;;;;;;;;;;;;;;;;;1047169;28;3755;-50
2022/08/31 01:29:09;;;;;;;;;;;;;;;;;;1047768;28;3892;-56
2022/08/31 01:29:39;;;;;;;;;;;;;;;;;;1047321;28;3828;-53
2022/08/31 01:30:10;;;;;;;;;;;;;;;;;;1046097;28;3904;-51
2022/08/31 01:30:41;;;;;;;;;;;;;;;;;;1051482;28;1982;-52
2022/08/31 01:31:19;;;;;;;;;;;;;;;;;;1051087;28;4044;-52
2022/08/31 01:31:50;;;;;;;;;;;;;;;;;;1050481;28;4096;-48
2022/08/31 01:32:20;;;;;;;;;;;;;;;;;;1051392;28;3942;-52
2022/08/31 01:32:50;;;;;;;;;;;;;;;;;;1052109;28;3927;-52
2022/08/31 01:33:28;;;;;;;;;;;;;;;;;;1051614;28;3619;-57
2022/08/31 01:33:58;;;;;;;;;;;;;;;;;;1052222;28;3874;-50
2022/08/31 01:34:29;;;;;;;;;;;;;;;;;;1048605;28;2938;-55
2022/08/31 01:34:59;;;;;;;;;;;;;;;;;;1050043;28;4057;-52
2022/08/31 01:35:29;;;;;;;;;;;;;;;;;;1045096;28;3734;-57
2022/08/31 01:36:00;;;;;;;;;;;;;;;;;;1044095;28;3864;-55
2022/08/31 01:36:33;;;;;;;;;;;;;;;;;;1044455;28;3735;-54
2022/08/31 01:37:03;;;;;;;;;;;;;;;;;;1040551;28;4089;-59
2022/08/31 01:37:33;;;;;;;;;;;;;;;;;;1045306;28;3241;-55
2022/08/31 01:38:04;;;;;;;;;;;;;;;;;;1042882;28;4733;-55
2022/08/31 01:38:34;;;;;;;;;;;;;;;;;;1048267;28;3041;-51
2022/08/31 01:39:06;;;;;;;;;;;;;;;;;;1051859;28;4048;-52
2022/08/31 01:39:36;;;;;;;;;;;;;;;;;;1051631;28;3615;-55
2022/08/31 01:40:07;;;;;;;;;;;;;;;;;;1050906;28;4025;-55
2022/08/31 01:40:44;;;;;;;;;;;;;;;;;;1050772;28;3022;-54
2022/08/31 01:41:14;;;;;;;;;;;;;;;;;;1051448;28;4092;-55
2022/08/31 01:41:44;;;;;;;;;;;;;;;;;;1052087;28;1932;-59
2022/08/31 01:42:16;;;;;;;;;;;;;;;;;;1050356;28;3895;-55
2022/08/31 01:42:46;;;;;;;;;;;;;;;;;;1051691;28;4000;-50
2022/08/31 01:43:16;;;;;;;;;;;;;;;;;;1052682;28;3805;-53
2022/08/31 01:43:47;;;;;;;;;;;;;;;;;;1050350;28;4419;-57
2022/08/31 01:44:19;;;;;;;;;;;;;;;;;;1052635;28;3820;-52
2022/08/31 01:44:49;;;;;;;;;;;;;;;;;;1052035;28;4129;-53
2022/08/31 01:45:19;;;;;;;;;;;;;;;;;;1046498;28;3865;-54
2022/08/31 01:45:50;;;;;;;;;;;;;;;;;;1046860;28;4071;-53
2022/08/31 01:46:20;;;;;;;;;;;;;;;;;;1047707;28;3553;-53
2022/08/31 01:46:51;;;;;;;;;;;;;;;;;;1045264;28;4063;-54
2022/08/31 01:47:34;;;;;;;;;;;;;;;;;;1046824;28;3804;-55
2022/08/31 01:48:12;;;;;;;;;;;;;;;;;;1046060;28;3836;-53
2022/08/31 01:48:43;;;;;;;;;;;;;;;;;;1047718;28;2706;-52
2022/08/31 01:49:15;;;;;;;;;;;;;;;;;;1047645;28;4012;-56
2022/08/31 01:49:45;;;;;;;;;;;;;;;;;;1046963;28;4016;-57
2022/08/31 01:50:15;;;;;;;;;;;;;;;;;;1046467;28;3678;-54
2022/08/31 01:50:46;;;;;;;;;;;;;;;;;;1046643;28;3902;-51
2022/08/31 01:51:18;;;;;;;;;;;;;;;;;;1048306;28;4200;-52
2022/08/31 01:51:49;;;;;;;;;;;;;;;;;;1047363;28;3845;-54
2022/08/31 01:52:19;;;;;;;;;;;;;;;;;;1048282;28;3593;-51
2022/08/31 01:52:50;;;;;;;;;;;;;;;;;;1047167;28;3924;-51
2022/08/31 01:53:20;;;;;;;;;;;;;;;;;;1046893;28;3774;-57
2022/08/31 01:53:51;;;;;;;;;;;;;;;;;;1046735;28;4100;-53
2022/08/31 01:54:23;;;;;;;;;;;;;;;;;;1048248;28;3905;-55
2022/08/31 01:54:54;;;;;;;;;;;;;;;;;;1047381;28;4148;-51
2022/08/31 01:55:24;;;;;;;;;;;;;;;;;;1047964;28;3610;-53
2022/08/31 01:55:55;;;;;;;;;;;;;;;;;;1046771;28;3919;-56
2022/08/31 01:56:37;;;;;;;;;;;;;;;;;;1047519;28;3809;-55
2022/08/31 01:57:09;;;;;;;;;;;;;;;;;;1047387;28;3780;-59
2022/08/31 01:57:39;;;;;;;;;;;;;;;;;;1047100;28;3691;-52
2022/08/31 01:58:09;;;;;;;;;;;;;;;;;;1046930;28;3933;-55
2022/08/31 01:58:40;;;;;;;;;;;;;;;;;;1047104;28;4023;-58
2022/08/31 01:59:11;;;;;;;;;;;;;;;;;;1047083;28;4038;-52
2022/08/31 01:59:42;;;;;;;;;;;;;;;;;;1049035;28;4265;-51
2022/08/31 02:00:12;;;;;;;;;;;;;;;;;;1048153;28;3771;-51
2022/08/31 02:00:43;;;;;;;;;;;;;;;;;;1045838;28;3630;-50
2022/08/31 02:01:13;;;;;;;;;;;;;;;;;;1046882;28;3720;-55
2022/08/31 02:01:45;;;;;;;;;;;;;;;;;;1047422;28;2974;-51
2022/08/31 02:02:15;;;;;;;;;;;;;;;;;;1047228;28;3731;-53
2022/08/31 02:02:45;;;;;;;;;;;;;;;;;;1046298;28;4062;-56
2022/08/31 02:03:15;;;;;;;;;;;;;;;;;;1046428;28;3762;-55
2022/08/31 02:03:46;;;;;;;;;;;;;;;;;;1045964;28;4051;-55
2022/08/31 02:04:17;;;;;;;;;;;;;;;;;;1048455;28;3865;-51
2022/08/31 02:04:47;;;;;;;;;;;;;;;;;;1046097;28;4000;-54
2022/08/31 02:05:17;;;;;;;;;;;;;;;;;;1047798;28;3265;-51
2022/08/31 02:05:48;;;;;;;;;;;;;;;;;;1047344;28;3900;-54
2022/08/31 02:06:18;;;;;;;;;;;;;;;;;;1048606;28;3738;-54
2022/08/31 02:06:51;;;;;;;;;;;;;;;;;;1046526;28;4051;-56
2022/08/31 02:07:21;;;;;;;;;;;;;;;;;;1048804;28;3697;-55
2022/08/31 02:07:51;;;;;;;;;;;;;;;;;;1047675;28;3910;-53
2022/08/31 02:08:21;;;;;;;;;;;;;;;;;;1046591;28;3718;-54
2022/08/31 02:08:52;;;;;;;;;;;;;;;;;;1046655;28;3900;-49
2022/08/31 02:09:22;;;;;;;;;;;;;;;;;;1047502;28;4650;-51
2022/08/31 02:09:53;;;;;;;;;;;;;;;;;;1046539;28;4089;-55
2022/08/31 02:10:23;;;;;;;;;;;;;;;;;;1046672;28;3795;-54
2022/08/31 02:10:54;;;;;;;;;;;;;;;;;;1047366;28;4174;-54
2022/08/31 02:11:24;;;;;;;;;;;;;;;;;;1047760;28;3891;-55
2022/08/31 02:11:55;;;;;;;;;;;;;;;;;;1046690;28;4079;-54
2022/08/31 02:12:25;;;;;;;;;;;;;;;;;;1047907;28;3917;-53
2022/08/31 02:12:56;;;;;;;;;;;;;;;;;;1046076;28;4076;-54
2022/08/31 02:13:26;;;;;;;;;;;;;;;;;;1047676;28;3765;-54
2022/08/31 02:13:56;;;;;;;;;;;;;;;;;;1047925;28;4466;-57
2022/08/31 02:14:27;;;;;;;;;;;;;;;;;;1047931;28;3863;-56
2022/08/31 02:14:57;;;;;;;;;;;;;;;;;;1046620;28;4561;-57
2022/08/31 02:15:34;;;;;;;;;;;;;;;;;;1048649;28;3170;-54
2022/08/31 02:16:05;;;;;;;;;;;;;;;;;;1046108;28;3842;-56
2022/08/31 02:16:35;;;;;;;;;;;;;;;;;;1046621;28;2954;-51
2022/08/31 02:17:06;;;;;;;;;;;;;;;;;;1047156;28;4111;-57
2022/08/31 02:17:36;;;;;;;;;;;;;;;;;;1046876;28;2932;-56
2022/08/31 02:18:06;;;;;;;;;;;;;;;;;;1046480;28;4053;-57
2022/08/31 02:18:36;;;;;;;;;;;;;;;;;;1048590;28;1993;-53
2022/08/31 02:19:07;;;;;;;;;;;;;;;;;;1046425;28;3872;-56
2022/08/31 02:19:37;;;;;;;;;;;;;;;;;;1047331;28;3757;-56
2022/08/31 02:20:08;;;;;;;;;;;;;;;;;;1047260;28;4068;-53
2022/08/31 02:20:39;;;;;;;;;;;;;;;;;;1047625;28;1548;-57
2022/08/31 02:21:09;;;;;;;;;;;;;;;;;;1046305;28;4044;-50
2022/08/31 02:21:40;;;;;;;;;;;;;;;;;;1046511;28;3936;-52
2022/08/31 02:22:10;;;;;;;;;;;;;;;;;;1046101;28;3983;-54
2022/08/31 02:22:40;;;;;;;;;;;;;;;;;;1047754;28;3915;-53
2022/08/31 02:23:11;;;;;;;;;;;;;;;;;;1046665;28;3980;-56
2022/08/31 02:23:41;;;;;;;;;;;;;;;;;;1046956;28;3797;-51
2022/08/31 02:24:12;;;;;;;;;;;;;;;;;;1047788;28;3944;-55
2022/08/31 02:24:42;;;;;;;;;;;;;;;;;;1046779;28;3049;-53
2022/08/31 02:25:13;;;;;;;;;;;;;;;;;;1046534;28;3991;-51
2022/08/31 02:25:44;;;;;;;;;;;;;;;;;;1047264;28;3452;-52
2022/08/31 02:26:14;;;;;;;;;;;;;;;;;;1046543;28;3716;-58
2022/08/31 02:26:44;;;;;;;;;;;;;;;;;;1048401;28;3725;-58
2022/08/31 02:27:14;;;;;;;;;;;;;;;;;;1047576;28;3979;-50
2022/08/31 02:27:45;;;;;;;;;;;;;;;;;;1047206;28;4233;-54
2022/08/31 02:28:17;;;;;;;;;;;;;;;;;;1047129;28;3488;-56
2022/08/31 02:28:48;;;;;;;;;;;;;;;;;;1047622;28;3801;-52
2022/08/31 02:29:18;;;;;;;;;;;;;;;;;;1047616;28;3730;-53
2022/08/31 02:29:48;;;;;;;;;;;;;;;;;;1045935;28;4436;-55
2022/08/31 02:30:19;;;;;;;;;;;;;;;;;;1047057;28;3584;-53
2022/08/31 02:30:49;;;;;;;;;;;;;;;;;;1047367;28;3894;-56
2022/08/31 02:31:19;;;;;;;;;;;;;;;;;;1045091;28;3336;-50
2022/08/31 02:31:50;;;;;;;;;;;;;;;;;;1045803;28;3886;-53
2022/08/31 02:32:21;;;;;;;;;;;;;;;;;;1047333;28;3021;-55
2022/08/31 02:32:51;;;;;;;;;;;;;;;;;;1047256;28;3959;-56
2022/08/31 02:33:23;;;;;;;;;;;;;;;;;;1046633;28;3773;-56
2022/08/31 02:33:54;;;;;;;;;;;;;;;;;;1047568;28;4061;-56
2022/08/31 02:34:24;;;;;;;;;;;;;;;;;;1047540;28;3773;-54
2022/08/31 02:34:54;;;;;;;;;;;;;;;;;;1050671;28;3799;-55
2022/08/31 02:35:25;;;;;;;;;;;;;;;;;;1049559;28;3862;-54
2022/08/31 02:35:55;;;;;;;;;;;;;;;;;;1044676;28;4098;-53
2022/08/31 02:36:25;;;;;;;;;;;;;;;;;;1045389;28;3635;-57
2022/08/31 02:36:55;;;;;;;;;;;;;;;;;;1047082;28;4239;-52
2022/08/31 02:37:26;;;;;;;;;;;;;;;;;;1046958;28;1961;-59
2022/08/31 02:37:56;;;;;;;;;;;;;;;;;;1046822;28;4965;-53
2022/08/31 02:38:26;;;;;;;;;;;;;;;;;;1046507;28;3505;-54
2022/08/31 02:39:03;;;;;;;;;;;;;;;;;;1046596;28;4087;-54
2022/08/31 02:39:33;;;;;;;;;;;;;;;;;;1048468;28;3640;-56
2022/08/31 02:40:04;;;;;;;;;;;;;;;;;;1046772;28;3892;-55
2022/08/31 02:40:37;;;;;;;;;;;;;;;;;;1047775;28;3219;-55
2022/08/31 02:41:07;;;;;;;;;;;;;;;;;;1046635;28;4035;-57
2022/08/31 02:41:37;;;;;;;;;;;;;;;;;;1048088;28;3687;-56
2022/08/31 02:42:08;;;;;;;;;;;;;;;;;;1045535;28;3874;-52
2022/08/31 02:42:38;;;;;;;;;;;;;;;;;;1048876;28;3483;-51
2022/08/31 02:43:09;;;;;;;;;;;;;;;;;;1048710;28;3871;-55
2022/08/31 02:43:39;;;;;;;;;;;;;;;;;;1046720;28;2381;-56
2022/08/31 02:44:09;;;;;;;;;;;;;;;;;;1047840;28;4066;-54
2022/08/31 02:44:40;;;;;;;;;;;;;;;;;;1049061;28;3669;-56
2022/08/31 02:45:10;;;;;;;;;;;;;;;;;;1046560;28;4243;-51
2022/08/31 02:45:40;;;;;;;;;;;;;;;;;;1047745;28;3456;-51
2022/08/31 02:46:11;;;;;;;;;;;;;;;;;;1047656;28;4067;-56
2022/08/31 02:46:41;;;;;;;;;;;;;;;;;;1046234;28;3705;-56
2022/08/31 02:47:26;;;;;;;;;;;;;;;;;;1047027;28;3886;-57
2022/08/31 02:48:04;;;;;;;;;;;;;;;;;;1051504;28;3894;-54
2022/08/31 02:48:34;;;;;;;;;;;;;;;;;;1051260;28;3784;-55
2022/08/31 02:49:05;;;;;;;;;;;;;;;;;;1051322;28;4052;-51
2022/08/31 02:49:35;;;;;;;;;;;;;;;;;;1051779;28;3819;-53
2022/08/31 02:50:05;;;;;;;;;;;;;;;;;;1050820;28;3891;-57
2022/08/31 02:50:40;;;;;;;;;;;;;;;;;;1050837;28;3339;-52
2022/08/31 02:51:10;;;;;;;;;;;;;;;;;;1045734;28;4002;-54
2022/08/31 02:51:41;;;;;;;;;;;;;;;;;;1047629;28;3011;-57
2022/08/31 02:52:11;;;;;;;;;;;;;;;;;;1047333;28;3897;-54
2022/08/31 02:52:43;;;;;;;;;;;;;;;;;;1047877;28;3751;-53
2022/08/31 02:53:15;;;;;;;;;;;;;;;;;;1049773;28;4023;-54
2022/08/31 02:53:45;;;;;;;;;;;;;;;;;;1051080;28;3921;-57
2022/08/31 02:54:15;;;;;;;;;;;;;;;;;;1051492;28;3395;-51
2022/08/31 02:54:46;;;;;;;;;;;;;;;;;;1051365;28;3905;-55
2022/08/31 02:55:16;;;;;;;;;;;;;;;;;;1052118;28;2118;-56
2022/08/31 02:55:47;;;;;;;;;;;;;;;;;;1048768;28;3903;-56
2022/08/31 02:56:17;;;;;;;;;;;;;;;;;;1050952;28;2190;-53
2022/08/31 02:56:47;;;;;;;;;;;;;;;;;;1044828;28;4259;-51
2022/08/31 02:57:18;;;;;;;;;;;;;;;;;;1047302;28;2590;-54
2022/08/31 02:57:49;;;;;;;;;;;;;;;;;;1046801;28;4070;-52
2022/08/31 02:58:20;;;;;;;;;;;;;;;;;;1048640;28;2030;-55
2022/08/31 02:58:53;;;;;;;;;;;;;;;;;;1051067;28;4043;-53
2022/08/31 02:59:23;;;;;;;;;;;;;;;;;;1051828;28;3298;-51
2022/08/31 02:59:53;;;;;;;;;;;;;;;;;;1046953;28;3893;-51
2022/08/31 03:00:24;;;;;;;;;;;;;;;;;;1046388;28;2981;-55
2022/08/31 03:00:54;;;;;;;;;;;;;;;;;;1047717;28;3976;-53
2022/08/31 03:01:25;;;;;;;;;;;;;;;;;;1048189;28;1748;-54
2022/08/31 03:01:55;;;;;;;;;;;;;;;;;;1050595;28;3896;-49
2022/08/31 03:02:25;;;;;;;;;;;;;;;;;;1047643;28;1697;-52
2022/08/31 03:02:56;;;;;;;;;;;;;;;;;;1046968;28;4131;-54
2022/08/31 03:03:26;;;;;;;;;;;;;;;;;;1046259;28;2637;-54
2022/08/31 03:03:57;;;;;;;;;;;;;;;;;;1048077;28;3984;-56
2022/08/31 03:04:28;;;;;;;;;;;;;;;;;;1051677;28;2825;-56
2022/08/31 03:05:01;;;;;;;;;;;;;;;;;;1050624;28;4035;-55
2022/08/31 03:05:32;;;;;;;;;;;;;;;;;;1051906;28;2958;-51
2022/08/31 03:06:02;;;;;;;;;;;;;;;;;;1050441;28;3927;-50
2022/08/31 03:06:32;;;;;;;;;;;;;;;;;;1050239;28;3275;-55
2022/08/31 03:07:03;;;;;;;;;;;;;;;;;;1052207;28;3860;-57
2022/08/31 03:07:34;;;;;;;;;;;;;;;;;;1051770;28;3429;-55
2022/08/31 03:08:04;;;;;;;;;;;;;;;;;;1051142;28;4017;-56
2022/08/31 03:08:34;;;;;;;;;;;;;;;;;;1051145;28;3796;-57
2022/08/31 03:09:05;;;;;;;;;;;;;;;;;;1051888;28;4122;-54
2022/08/31 03:09:42;;;;;;;;;;;;;;;;;;1052008;28;3336;-55
2022/08/31 03:10:13;;;;;;;;;;;;;;;;;;1050182;28;4148;-56
2022/08/31 03:10:44;;;;;;;;;;;;;;;;;;1052184;28;2601;-51
2022/08/31 03:11:15;;;;;;;;;;;;;;;;;;1050723;28;3828;-53
2022/08/31 03:11:45;;;;;;;;;;;;;;;;;;1050646;28;3888;-55
2022/08/31 03:12:15;;;;;;;;;;;;;;;;;;1051989;28;2992;-56
2022/08/31 03:12:49;;;;;;;;;;;;;;;;;;1050553;28;4038;-55
2022/08/31 03:13:20;;;;;;;;;;;;;;;;;;1051814;28;2460;-55
2022/08/31 03:13:50;;;;;;;;;;;;;;;;;;1050040;28;4272;-53
2022/08/31 03:14:20;;;;;;;;;;;;;;;;;;1051149;28;1847;-51
2022/08/31 03:14:51;;;;;;;;;;;;;;;;;;1050080;28;3920;-55
2022/08/31 03:15:21;;;;;;;;;;;;;;;;;;1051106;28;3139;-56
2022/08/31 03:15:52;;;;;;;;;;;;;;;;;;1050829;28;3868;-52
2022/08/31 03:16:22;;;;;;;;;;;;;;;;;;1051506;28;1816;-51
2022/08/31 03:16:52;;;;;;;;;;;;;;;;;;1049937;28;4586;-52
2022/08/31 03:17:23;;;;;;;;;;;;;;;;;;1051800;28;3638;-53
2022/08/31 03:17:53;;;;;;;;;;;;;;;;;;1050948;28;3910;-55
2022/08/31 03:18:24;;;;;;;;;;;;;;;;;;1052497;28;1397;-53
2022/08/31 03:18:54;;;;;;;;;;;;;;;;;;1046307;28;3972;-55
2022/08/31 03:19:24;;;;;;;;;;;;;;;;;;1049144;28;2668;-49
2022/08/31 03:19:59;;;;;;;;;;;;;;;;;;1046391;28;3967;-56
2022/08/31 03:20:30;;;;;;;;;;;;;;;;;;1048559;28;3212;-53
2022/08/31 03:21:01;;;;;;;;;;;;;;;;;;1047510;28;4129;-50
2022/08/31 03:21:31;;;;;;;;;;;;;;;;;;1046838;28;2298;-57
2022/08/31 03:22:01;;;;;;;;;;;;;;;;;;1047448;28;5452;-55
2022/08/31 03:22:32;;;;;;;;;;;;;;;;;;1047221;28;3713;-58
2022/08/31 03:23:03;;;;;;;;;;;;;;;;;;1051268;28;3971;-55
2022/08/31 03:23:33;;;;;;;;;;;;;;;;;;1049799;28;3836;-54
2022/08/31 03:24:03;;;;;;;;;;;;;;;;;;1049454;28;4213;-56
2022/08/31 03:24:34;;;;;;;;;;;;;;;;;;1049820;28;3666;-55
2022/08/31 03:25:05;;;;;;;;;;;;;;;;;;1050299;28;3968;-56
2022/08/31 03:25:35;;;;;;;;;;;;;;;;;;1050820;28;2102;-56
2022/08/31 03:26:06;;;;;;;;;;;;;;;;;;1051710;28;3964;-54
2022/08/31 03:26:36;;;;;;;;;;;;;;;;;;1051490;28;2956;-56
2022/08/31 03:27:06;;;;;;;;;;;;;;;;;;1050740;28;4065;-55
2022/08/31 03:27:36;;;;;;;;;;;;;;;;;;1043950;28;3036;-55
2022/08/31 03:28:07;;;;;;;;;;;;;;;;;;1042051;28;3880;-54
2022/08/31 03:28:37;;;;;;;;;;;;;;;;;;1043801;28;2929;-55
2022/08/31 03:29:07;;;;;;;;;;;;;;;;;;1043329;28;4254;-54
2022/08/31 03:29:38;;;;;;;;;;;;;;;;;;1050342;28;3243;-55
2022/08/31 03:30:10;;;;;;;;;;;;;;;;;;1046033;28;4160;-57
2022/08/31 03:30:41;;;;;;;;;;;;;;;;;;1046785;28;3178;-56
2022/08/31 03:31:11;;;;;;;;;;;;;;;;;;1046444;28;4090;-57
2022/08/31 03:31:41;;;;;;;;;;;;;;;;;;1046848;28;2977;-52
2022/08/31 03:32:12;;;;;;;;;;;;;;;;;;1046432;28;3846;-52
2022/08/31 03:32:44;;;;;;;;;;;;;;;;;;1045043;28;2937;-53
2022/08/31 03:33:14;;;;;;;;;;;;;;;;;;1045130;28;3873;-55
2022/08/31 03:33:44;;;;;;;;;;;;;;;;;;1046511;28;3927;-55
2022/08/31 03:34:15;;;;;;;;;;;;;;;;;;1049244;28;2518;-53
2022/08/31 03:34:45;;;;;;;;;;;;;;;;;;1048228;28;3919;-52
2022/08/31 03:35:17;;;;;;;;;;;;;;;;;;1045275;28;1493;-56
2022/08/31 03:35:47;;;;;;;;;;;;;;;;;;1044053;28;3901;-58
2022/08/31 03:36:17;;;;;;;;;;;;;;;;;;1042477;28;2445;-55
2022/08/31 03:36:48;;;;;;;;;;;;;;;;;;1040120;28;4101;-55
2022/08/31 03:37:20;;;;;;;;;;;;;;;;;;1046317;28;2066;-53
2022/08/31 03:37:50;;;;;;;;;;;;;;;;;;1043503;28;4087;-52
2022/08/31 03:38:20;;;;;;;;;;;;;;;;;;1050975;28;2712;-51
2022/08/31 03:38:51;;;;;;;;;;;;;;;;;;1047090;28;3939;-52
2022/08/31 03:39:21;;;;;;;;;;;;;;;;;;1048212;28;3241;-52
2022/08/31 03:39:51;;;;;;;;;;;;;;;;;;1048341;28;3892;-55
2022/08/31 03:40:21;;;;;;;;;;;;;;;;;;1044782;28;2741;-50
2022/08/31 03:40:52;;;;;;;;;;;;;;;;;;1046238;28;4054;-54
2022/08/31 03:41:23;;;;;;;;;;;;;;;;;;1047324;28;3552;-53